sensor_id;sensor_type;location;lat;lon;timestamp;pressure;altitude;pressure_sealevel;temperature;humidity
69971;BME280;57301;50.328;8.542;2024-01-10T00:00:39;99683.59;;;-7.29;65.06
69971;BME280;57301;50.328;8.542;2024-01-10T00:03:05;99681.03;;;-7.29;64.90
69971;BME280;57301;50.328;8.542;2024-01-10T00:05:32;99683.88;;;-7.63;66.46
69971;BME280;57301;50.328;8.542;2024-01-10T00:07:58;99687.22;;;-7.50;66.18
69971;BME280;57301;50.328;8.542;2024-01-10T00:10:25;99685.50;;;-7.49;66.70
69971;BME280;57301;50.328;8.542;2024-01-10T00:12:51;99673.38;;;-7.46;66.35
69971;BME280;57301;50.328;8.542;2024-01-10T00:15:18;99660.56;;;-7.61;68.00
69971;BME280;57301;50.328;8.542;2024-01-10T00:17:44;99668.25;;;-7.52;67.32
69971;BME280;57301;50.328;8.542;2024-01-10T00:20:11;99662.22;;;-7.55;67.52
69971;BME280;57301;50.328;8.542;2024-01-10T00:22:38;99654.53;;;-7.63;67.83
69971;BME280;57301;50.328;8.542;2024-01-10T00:25:04;99648.38;;;-7.50;67.24
69971;BME280;57301;50.328;8.542;2024-01-10T00:27:31;99646.75;;;-7.59;67.81
69971;BME280;57301;50.328;8.542;2024-01-10T00:29:57;99649.34;;;-7.63;67.97
69971;BME280;57301;50.328;8.542;2024-01-10T00:32:24;99652.75;;;-7.57;68.88
69971;BME280;57301;50.328;8.542;2024-01-10T00:34:51;99649.47;;;-7.77;68.68
69971;BME280;57301;50.328;8.542;2024-01-10T00:37:17;99640.81;;;-7.74;69.10
69971;BME280;57301;50.328;8.542;2024-01-10T00:39:44;99645.41;;;-8.10;71.22
69971;BME280;57301;50.328;8.542;2024-01-10T00:42:10;99655.63;;;-7.93;70.72
69971;BME280;57301;50.328;8.542;2024-01-10T00:44:37;99641.69;;;-7.72;70.03
69971;BME280;57301;50.328;8.542;2024-01-10T00:47:03;99640.00;;;-7.78;69.54
69971;BME280;57301;50.328;8.542;2024-01-10T00:49:30;99633.84;;;-7.68;69.70
69971;BME280;57301;50.328;8.542;2024-01-10T00:51:57;99632.91;;;-7.56;68.95
69971;BME280;57301;50.328;8.542;2024-01-10T00:54:23;99635.59;;;-7.70;69.11
69971;BME280;57301;50.328;8.542;2024-01-10T00:56:50;99633.81;;;-7.62;69.78
69971;BME280;57301;50.328;8.542;2024-01-10T00:59:17;99637.31;;;-7.67;69.34
69971;BME280;57301;50.328;8.542;2024-01-10T01:01:43;99636.59;;;-7.86;69.75
69971;BME280;57301;50.328;8.542;2024-01-10T01:04:10;99634.72;;;-7.66;70.09
69971;BME280;57301;50.328;8.542;2024-01-10T01:06:36;99632.22;;;-7.76;70.86
69971;BME280;57301;50.328;8.542;2024-01-10T01:09:03;99627.00;;;-7.70;70.50
69971;BME280;57301;50.328;8.542;2024-01-10T01:11:30;99627.84;;;-7.67;70.19
69971;BME280;57301;50.328;8.542;2024-01-10T01:13:56;99627.03;;;-7.79;70.24
69971;BME280;57301;50.328;8.542;2024-01-10T01:16:23;99622.66;;;-7.67;69.24
69971;BME280;57301;50.328;8.542;2024-01-10T01:18:49;99622.72;;;-7.77;69.99
69971;BME280;57301;50.328;8.542;2024-01-10T01:21:16;99627.97;;;-7.85;70.05
69971;BME280;57301;50.328;8.542;2024-01-10T01:23:42;99629.63;;;-7.79;71.09
69971;BME280;57301;50.328;8.542;2024-01-10T01:26:09;99624.50;;;-7.82;71.18
69971;BME280;57301;50.328;8.542;2024-01-10T01:28:36;99625.41;;;-7.90;70.77
69971;BME280;57301;50.328;8.542;2024-01-10T01:31:03;99631.50;;;-7.95;71.87
69971;BME280;57301;50.328;8.542;2024-01-10T01:33:29;99632.13;;;-7.66;70.27
69971;BME280;57301;50.328;8.542;2024-01-10T01:35:56;99628.84;;;-7.85;70.70
69971;BME280;57301;50.328;8.542;2024-01-10T01:38:23;99633.19;;;-7.93;71.29
69971;BME280;57301;50.328;8.542;2024-01-10T01:40:49;99626.97;;;-7.66;70.56
69971;BME280;57301;50.328;8.542;2024-01-10T01:43:20;99633.88;;;-7.66;70.47
69971;BME280;57301;50.328;8.542;2024-01-10T01:45:51;99627.16;;;-7.93;71.80
69971;BME280;57301;50.328;8.542;2024-01-10T01:48:19;99626.28;;;-7.89;71.30
69971;BME280;57301;50.328;8.542;2024-01-10T01:50:47;99630.69;;;-8.02;72.40
69971;BME280;57301;50.328;8.542;2024-01-10T01:53:15;99628.66;;;-7.63;71.46
69971;BME280;57301;50.328;8.542;2024-01-10T01:55:43;99620.91;;;-7.68;70.30
69971;BME280;57301;50.328;8.542;2024-01-10T01:58:11;99624.53;;;-7.87;71.70
69971;BME280;57301;50.328;8.542;2024-01-10T02:00:39;99627.81;;;-7.68;70.54
69971;BME280;57301;50.328;8.542;2024-01-10T02:03:07;99629.72;;;-7.89;72.36
69971;BME280;57301;50.328;8.542;2024-01-10T02:05:35;99633.13;;;-7.83;71.78
69971;BME280;57301;50.328;8.542;2024-01-10T02:08:02;99619.31;;;-7.81;71.47
69971;BME280;57301;50.328;8.542;2024-01-10T02:10:29;99618.34;;;-7.66;70.43
69971;BME280;57301;50.328;8.542;2024-01-10T02:12:55;99614.88;;;-7.68;70.88
69971;BME280;57301;50.328;8.542;2024-01-10T02:15:22;99614.22;;;-7.93;71.03
69971;BME280;57301;50.328;8.542;2024-01-10T02:17:49;99602.84;;;-7.75;71.15
69971;BME280;57301;50.328;8.542;2024-01-10T02:20:16;99609.06;;;-7.95;71.62
69971;BME280;57301;50.328;8.542;2024-01-10T02:22:47;99611.63;;;-7.93;71.55
69971;BME280;57301;50.328;8.542;2024-01-10T02:25:13;99604.75;;;-7.94;71.93
69971;BME280;57301;50.328;8.542;2024-01-10T02:27:40;99606.41;;;-7.87;71.49
69971;BME280;57301;50.328;8.542;2024-01-10T02:30:08;99595.00;;;-7.68;71.27
69971;BME280;57301;50.328;8.542;2024-01-10T02:32:35;99595.84;;;-7.64;70.68
69971;BME280;57301;50.328;8.542;2024-01-10T02:35:04;99594.28;;;-7.80;71.08
69971;BME280;57301;50.328;8.542;2024-01-10T02:37:31;99592.53;;;-7.77;70.71
69971;BME280;57301;50.328;8.542;2024-01-10T02:39:57;99593.53;;;-7.92;71.52
69971;BME280;57301;50.328;8.542;2024-01-10T02:42:24;99593.69;;;-8.15;72.80
69971;BME280;57301;50.328;8.542;2024-01-10T02:44:50;99585.91;;;-8.10;72.73
69971;BME280;57301;50.328;8.542;2024-01-10T02:47:17;99587.47;;;-7.91;72.19
69971;BME280;57301;50.328;8.542;2024-01-10T02:49:43;99586.53;;;-7.83;70.79
69971;BME280;57301;50.328;8.542;2024-01-10T02:52:10;99587.47;;;-7.92;71.08
69971;BME280;57301;50.328;8.542;2024-01-10T02:54:36;99589.09;;;-7.79;70.90
69971;BME280;57301;50.328;8.542;2024-01-10T02:57:03;99581.38;;;-7.87;71.39
69971;BME280;57301;50.328;8.542;2024-01-10T02:59:29;99583.00;;;-7.75;70.25
69971;BME280;57301;50.328;8.542;2024-01-10T03:01:56;99593.28;;;-7.64;69.83
69971;BME280;57301;50.328;8.542;2024-01-10T03:04:22;99588.28;;;-7.87;70.38
69971;BME280;57301;50.328;8.542;2024-01-10T03:06:49;99582.19;;;-7.78;70.65
69971;BME280;57301;50.328;8.542;2024-01-10T03:09:15;99579.63;;;-7.81;71.05
69971;BME280;57301;50.328;8.542;2024-01-10T03:11:42;99574.34;;;-7.74;69.85
69971;BME280;57301;50.328;8.542;2024-01-10T03:14:09;99571.84;;;-7.81;70.04
69971;BME280;57301;50.328;8.542;2024-01-10T03:16:37;99579.63;;;-7.81;70.81
69971;BME280;57301;50.328;8.542;2024-01-10T03:19:04;99577.84;;;-7.76;69.69
69971;BME280;57301;50.328;8.542;2024-01-10T03:21:31;99565.97;;;-8.00;72.04
69971;BME280;57301;50.328;8.542;2024-01-10T03:23:58;99564.22;;;-7.97;71.85
69971;BME280;57301;50.328;8.542;2024-01-10T03:26:26;99556.28;;;-7.77;71.41
69971;BME280;57301;50.328;8.542;2024-01-10T03:28:53;99561.47;;;-7.78;70.87
69971;BME280;57301;50.328;8.542;2024-01-10T03:31:20;99559.94;;;-8.01;71.88
69971;BME280;57301;50.328;8.542;2024-01-10T03:33:47;99549.50;;;-7.93;71.58
69971;BME280;57301;50.328;8.542;2024-01-10T03:36:15;99550.34;;;-7.88;71.86
69971;BME280;57301;50.328;8.542;2024-01-10T03:38:43;99558.97;;;-7.89;71.71
69971;BME280;57301;50.328;8.542;2024-01-10T03:41:13;99554.66;;;-7.86;71.45
69971;BME280;57301;50.328;8.542;2024-01-10T03:43:40;99553.66;;;-7.75;71.28
69971;BME280;57301;50.328;8.542;2024-01-10T03:46:08;99567.41;;;-7.66;70.70
69971;BME280;57301;50.328;8.542;2024-01-10T03:48:35;99568.28;;;-7.68;70.87
69971;BME280;57301;50.328;8.542;2024-01-10T03:51:01;99575.16;;;-7.64;70.93
69971;BME280;57301;50.328;8.542;2024-01-10T03:53:28;99563.19;;;-7.77;70.81
69971;BME280;57301;50.328;8.542;2024-01-10T03:55:54;99554.47;;;-7.66;70.35
69971;BME280;57301;50.328;8.542;2024-01-10T03:58:21;99559.69;;;-7.73;70.60
69971;BME280;57301;50.328;8.542;2024-01-10T04:00:48;99557.97;;;-7.74;70.68
69971;BME280;57301;50.328;8.542;2024-01-10T04:03:14;99548.56;;;-7.81;70.87
69971;BME280;57301;50.328;8.542;2024-01-10T04:05:42;99553.69;;;-7.77;70.79
69971;BME280;57301;50.328;8.542;2024-01-10T04:08:08;99556.66;;;-8.21;72.97
69971;BME280;57301;50.328;8.542;2024-01-10T04:10:35;99551.44;;;-8.17;73.45
69971;BME280;57301;50.328;8.542;2024-01-10T04:13:01;99547.19;;;-8.24;73.27
69971;BME280;57301;50.328;8.542;2024-01-10T04:15:28;99555.81;;;-8.25;73.87
69971;BME280;57301;50.328;8.542;2024-01-10T04:17:54;99551.59;;;-8.33;74.23
69971;BME280;57301;50.328;8.542;2024-01-10T04:20:21;99551.44;;;-8.17;73.98
69971;BME280;57301;50.328;8.542;2024-01-10T04:22:47;99555.66;;;-8.05;73.37
69971;BME280;57301;50.328;8.542;2024-01-10T04:25:14;99556.53;;;-8.03;73.39
69971;BME280;57301;50.328;8.542;2024-01-10T04:27:40;99567.59;;;-7.87;73.23
69971;BME280;57301;50.328;8.542;2024-01-10T04:30:07;99570.19;;;-7.89;71.98
69971;BME280;57301;50.328;8.542;2024-01-10T04:32:34;99562.34;;;-7.81;72.28
69971;BME280;57301;50.328;8.542;2024-01-10T04:35:01;99570.34;;;-8.04;73.52
69971;BME280;57301;50.328;8.542;2024-01-10T04:37:28;99564.09;;;-7.83;71.94
69971;BME280;57301;50.328;8.542;2024-01-10T04:39:54;99563.31;;;-7.90;72.19
69971;BME280;57301;50.328;8.542;2024-01-10T04:42:21;99567.72;;;-8.05;73.02
69971;BME280;57301;50.328;8.542;2024-01-10T04:44:48;99569.34;;;-7.89;72.99
69971;BME280;57301;50.328;8.542;2024-01-10T04:47:15;99561.53;;;-7.85;72.65
69971;BME280;57301;50.328;8.542;2024-01-10T04:49:42;99574.69;;;-8.09;72.65
69971;BME280;57301;50.328;8.542;2024-01-10T04:52:09;99577.38;;;-8.21;73.65
69971;BME280;57301;50.328;8.542;2024-01-10T04:54:36;99572.91;;;-8.02;73.07
69971;BME280;57301;50.328;8.542;2024-01-10T04:57:02;99564.34;;;-8.12;73.13
69971;BME280;57301;50.328;8.542;2024-01-10T04:59:29;99565.22;;;-8.15;73.27
69971;BME280;57301;50.328;8.542;2024-01-10T05:01:55;99563.47;;;-8.08;73.90
69971;BME280;57301;50.328;8.542;2024-01-10T05:04:22;99566.03;;;-8.06;73.47
69971;BME280;57301;50.328;8.542;2024-01-10T05:06:48;99567.97;;;-8.34;74.51
69971;BME280;57301;50.328;8.542;2024-01-10T05:09:15;99566.06;;;-8.11;73.77
69971;BME280;57301;50.328;8.542;2024-01-10T05:11:42;99565.22;;;-8.13;73.92
69971;BME280;57301;50.328;8.542;2024-01-10T05:14:10;99567.94;;;-8.31;74.86
69971;BME280;57301;50.328;8.542;2024-01-10T05:16:36;99549.81;;;-8.28;74.65
69971;BME280;57301;50.328;8.542;2024-01-10T05:19:03;99570.47;;;-8.22;74.15
69971;BME280;57301;50.328;8.542;2024-01-10T05:21:33;99563.59;;;-8.26;74.42
69971;BME280;57301;50.328;8.542;2024-01-10T05:24:00;99563.47;;;-8.08;74.26
69971;BME280;57301;50.328;8.542;2024-01-10T05:26:26;99571.50;;;-8.43;75.74
69971;BME280;57301;50.328;8.542;2024-01-10T05:28:53;99562.78;;;-8.33;75.98
69971;BME280;57301;50.328;8.542;2024-01-10T05:31:19;99563.81;;;-8.54;75.71
69971;BME280;57301;50.328;8.542;2024-01-10T05:33:46;99559.44;;;-8.47;76.33
69971;BME280;57301;50.328;8.542;2024-01-10T05:36:13;99551.53;;;-8.29;75.13
69971;BME280;57301;50.328;8.542;2024-01-10T05:38:40;99550.81;;;-8.40;75.38
69971;BME280;57301;50.328;8.542;2024-01-10T05:41:06;99558.44;;;-8.31;74.91
69971;BME280;57301;50.328;8.542;2024-01-10T05:43:33;99556.94;;;-8.56;75.43
69971;BME280;57301;50.328;8.542;2024-01-10T05:45:59;99554.16;;;-8.33;75.61
69971;BME280;57301;50.328;8.542;2024-01-10T05:48:26;99557.72;;;-8.48;75.77
69971;BME280;57301;50.328;8.542;2024-01-10T05:50:53;99564.59;;;-8.43;75.70
69971;BME280;57301;50.328;8.542;2024-01-10T05:53:19;99558.53;;;-8.37;76.11
69971;BME280;57301;50.328;8.542;2024-01-10T05:55:46;99567.91;;;-8.25;75.73
69971;BME280;57301;50.328;8.542;2024-01-10T05:58:13;99569.00;;;-8.55;76.30
69971;BME280;57301;50.328;8.542;2024-01-10T06:00:39;99559.50;;;-8.55;75.54
69971;BME280;57301;50.328;8.542;2024-01-10T06:03:06;99560.41;;;-8.59;76.08
69971;BME280;57301;50.328;8.542;2024-01-10T06:05:34;99568.22;;;-8.70;76.18
69971;BME280;57301;50.328;8.542;2024-01-10T06:08:00;99553.47;;;-8.52;76.22
69971;BME280;57301;50.328;8.542;2024-01-10T06:10:30;99564.75;;;-8.64;75.95
69971;BME280;57301;50.328;8.542;2024-01-10T06:13:01;99564.63;;;-8.46;76.19
69971;BME280;57301;50.328;8.542;2024-01-10T06:15:27;99558.75;;;-8.74;77.16
69971;BME280;57301;50.328;8.542;2024-01-10T06:17:55;99560.53;;;-8.83;77.87
69971;BME280;57301;50.328;8.542;2024-01-10T06:20:24;99554.28;;;-8.44;76.87
69971;BME280;57301;50.328;8.542;2024-01-10T06:22:51;99550.09;;;-8.67;76.33
69971;BME280;57301;50.328;8.542;2024-01-10T06:25:17;99550.84;;;-8.49;76.48
69971;BME280;57301;50.328;8.542;2024-01-10T06:27:44;99555.19;;;-8.53;75.92
69971;BME280;57301;50.328;8.542;2024-01-10T06:30:11;99549.94;;;-8.44;75.77
69971;BME280;57301;50.328;8.542;2024-01-10T06:32:37;99555.16;;;-8.50;75.95
69971;BME280;57301;50.328;8.542;2024-01-10T06:35:04;99552.69;;;-8.65;76.53
69971;BME280;57301;50.328;8.542;2024-01-10T06:37:31;99558.75;;;-8.71;77.89
69971;BME280;57301;50.328;8.542;2024-01-10T06:40:00;99557.81;;;-8.60;76.43
69971;BME280;57301;50.328;8.542;2024-01-10T06:42:27;99549.13;;;-8.49;76.84
69971;BME280;57301;50.328;8.542;2024-01-10T06:44:53;99557.78;;;-8.54;76.82
69971;BME280;57301;50.328;8.542;2024-01-10T06:47:20;99555.28;;;-8.65;77.49
69971;BME280;57301;50.328;8.542;2024-01-10T06:49:47;99555.34;;;-8.76;77.12
69971;BME280;57301;50.328;8.542;2024-01-10T06:52:20;99559.47;;;-8.49;76.22
69971;BME280;57301;50.328;8.542;2024-01-10T06:54:46;99564.75;;;-8.69;76.55
69971;BME280;57301;50.328;8.542;2024-01-10T06:57:13;99562.28;;;-8.87;77.83
69971;BME280;57301;50.328;8.542;2024-01-10T06:59:39;99563.06;;;-8.71;77.52
69971;BME280;57301;50.328;8.542;2024-01-10T07:02:06;99559.69;;;-8.87;77.98
69971;BME280;57301;50.328;8.542;2024-01-10T07:04:33;99557.00;;;-8.69;77.25
69971;BME280;57301;50.328;8.542;2024-01-10T07:06:59;99558.66;;;-8.60;77.20
69971;BME280;57301;50.328;8.542;2024-01-10T07:09:26;99555.31;;;-8.71;77.09
69971;BME280;57301;50.328;8.542;2024-01-10T07:11:53;99569.03;;;-8.66;77.74
69971;BME280;57301;50.328;8.542;2024-01-10T07:14:20;99573.41;;;-8.71;77.31
69971;BME280;57301;50.328;8.542;2024-01-10T07:16:47;99566.38;;;-8.49;76.85
69971;BME280;57301;50.328;8.542;2024-01-10T07:19:14;99564.63;;;-8.44;76.81
69971;BME280;57301;50.328;8.542;2024-01-10T07:21:41;99572.44;;;-8.59;77.51
69971;BME280;57301;50.328;8.542;2024-01-10T07:24:09;99568.03;;;-8.42;76.55
69971;BME280;57301;50.328;8.542;2024-01-10T07:26:38;99574.22;;;-8.66;77.33
69971;BME280;57301;50.328;8.542;2024-01-10T07:29:05;99575.09;;;-8.72;78.06
69971;BME280;57301;50.328;8.542;2024-01-10T07:31:35;99572.44;;;-8.56;77.78
69971;BME280;57301;50.328;8.542;2024-01-10T07:34:02;99582.03;;;-8.77;78.39
69971;BME280;57301;50.328;8.542;2024-01-10T07:36:32;99584.47;;;-8.51;78.18
69971;BME280;57301;50.328;8.542;2024-01-10T07:39:00;99592.31;;;-8.64;77.99
69971;BME280;57301;50.328;8.542;2024-01-10T07:41:30;99589.59;;;-8.40;77.71
69971;BME280;57301;50.328;8.542;2024-01-10T07:43:56;99592.31;;;-8.63;78.37
69971;BME280;57301;50.328;8.542;2024-01-10T07:46:23;99599.00;;;-8.34;77.89
69971;BME280;57301;50.328;8.542;2024-01-10T07:48:50;99594.84;;;-8.55;78.27
69971;BME280;57301;50.328;8.542;2024-01-10T07:51:16;99601.56;;;-8.31;77.95
69971;BME280;57301;50.328;8.542;2024-01-10T07:53:43;99603.31;;;-8.33;77.81
69971;BME280;57301;50.328;8.542;2024-01-10T07:56:10;99605.09;;;-8.42;78.31
69971;BME280;57301;50.328;8.542;2024-01-10T07:58:39;99597.31;;;-8.37;78.16
69971;BME280;57301;50.328;8.542;2024-01-10T08:01:05;99604.91;;;-8.14;77.31
69971;BME280;57301;50.328;8.542;2024-01-10T08:03:32;99611.72;;;-8.05;77.53
69971;BME280;57301;50.328;8.542;2024-01-10T08:06:00;99604.00;;;-8.12;77.28
69971;BME280;57301;50.328;8.542;2024-01-10T08:08:26;99605.69;;;-8.03;77.31
69971;BME280;57301;50.328;8.542;2024-01-10T08:10:53;99604.75;;;-7.94;77.46
69971;BME280;57301;50.328;8.542;2024-01-10T08:13:19;99608.91;;;-7.76;77.07
69971;BME280;57301;50.328;8.542;2024-01-10T08:15:46;99614.91;;;-7.70;76.78
69971;BME280;57301;50.328;8.542;2024-01-10T08:18:12;99611.38;;;-7.60;76.51
69971;BME280;57301;50.328;8.542;2024-01-10T08:20:40;99611.19;;;-7.43;76.15
69971;BME280;57301;50.328;8.542;2024-01-10T08:23:07;99601.81;;;-7.53;76.79
69971;BME280;57301;50.328;8.542;2024-01-10T08:25:34;99608.53;;;-7.35;76.16
69971;BME280;57301;50.328;8.542;2024-01-10T08:28:01;99608.44;;;-7.26;76.37
69971;BME280;57301;50.328;8.542;2024-01-10T08:30:28;99611.88;;;-7.24;76.22
69971;BME280;57301;50.328;8.542;2024-01-10T08:32:54;99606.47;;;-7.04;75.81
69971;BME280;57301;50.328;8.542;2024-01-10T08:35:21;99609.94;;;-7.05;75.45
69971;BME280;57301;50.328;8.542;2024-01-10T08:37:53;99613.84;;;-6.70;75.22
69971;BME280;57301;50.328;8.542;2024-01-10T08:40:19;99603.09;;;-6.43;73.72
69971;BME280;57301;50.328;8.542;2024-01-10T08:42:47;99609.34;;;-6.56;73.89
69971;BME280;57301;50.328;8.542;2024-01-10T08:45:14;99607.38;;;-6.40;73.76
69971;BME280;57301;50.328;8.542;2024-01-10T08:47:41;99616.13;;;-5.90;72.15
69971;BME280;57301;50.328;8.542;2024-01-10T08:50:08;99605.69;;;-5.87;72.04
69971;BME280;57301;50.328;8.542;2024-01-10T08:52:35;99611.53;;;-5.73;70.79
69971;BME280;57301;50.328;8.542;2024-01-10T08:55:05;99602.16;;;-5.32;69.40
69971;BME280;57301;50.328;8.542;2024-01-10T08:57:35;99611.22;;;-5.07;68.18
69971;BME280;57301;50.328;8.542;2024-01-10T09:00:03;99615.28;;;-4.94;67.92
69971;BME280;57301;50.328;8.542;2024-01-10T09:02:33;99605.00;;;-4.56;67.56
69971;BME280;57301;50.328;8.542;2024-01-10T09:05:02;99607.75;;;-4.64;66.70
69971;BME280;57301;50.328;8.542;2024-01-10T09:07:29;99609.44;;;-4.21;66.18
69971;BME280;57301;50.328;8.542;2024-01-10T09:09:56;99610.25;;;-3.82;65.32
69971;BME280;57301;50.328;8.542;2024-01-10T09:12:23;99605.28;;;-3.57;62.79
69971;BME280;57301;50.328;8.542;2024-01-10T09:14:50;99616.34;;;-4.20;62.95
69971;BME280;57301;50.328;8.542;2024-01-10T09:20:08;99610.72;;;-3.31;63.19
69971;BME280;57301;50.328;8.542;2024-01-10T09:22:34;99617.59;;;-3.28;62.13
69971;BME280;57301;50.328;8.542;2024-01-10T09:25:01;99617.00;;;-3.39;61.88
69971;BME280;57301;50.328;8.542;2024-01-10T09:27:33;99612.22;;;-3.22;62.09
69971;BME280;57301;50.328;8.542;2024-01-10T09:30:01;99618.31;;;-3.56;63.17
69971;BME280;57301;50.328;8.542;2024-01-10T09:32:37;99615.50;;;-3.84;63.12
69971;BME280;57301;50.328;8.542;2024-01-10T09:35:04;99615.59;;;-3.53;61.93
69971;BME280;57301;50.328;8.542;2024-01-10T09:37:31;99614.41;;;-3.73;62.20
69971;BME280;57301;50.328;8.542;2024-01-10T09:39:57;99614.50;;;-3.44;61.99
69971;BME280;57301;50.328;8.542;2024-01-10T09:42:25;99610.66;;;-3.29;63.51
69971;BME280;57301;50.328;8.542;2024-01-10T09:44:52;99613.00;;;-3.18;61.93
69971;BME280;57301;50.328;8.542;2024-01-10T09:47:20;99614.13;;;-3.29;62.00
69971;BME280;57301;50.328;8.542;2024-01-10T09:49:47;99609.19;;;-3.75;62.75
69971;BME280;57301;50.328;8.542;2024-01-10T09:52:23;99618.66;;;-3.71;63.27
69971;BME280;57301;50.328;8.542;2024-01-10T09:54:55;99629.56;;;-4.28;64.14
69971;BME280;57301;50.328;8.542;2024-01-10T09:57:25;99620.06;;;-3.58;64.03
69971;BME280;57301;50.328;8.542;2024-01-10T09:59:52;99623.00;;;-3.03;65.05
69971;BME280;57301;50.328;8.542;2024-01-10T10:02:20;99618.59;;;-2.39;63.30
69971;BME280;57301;50.328;8.542;2024-01-10T10:05:02;99608.00;;;-3.28;61.48
69971;BME280;57301;50.328;8.542;2024-01-10T10:07:30;99616.16;;;-3.40;61.83
69971;BME280;57301;50.328;8.542;2024-01-10T10:09:57;99620.81;;;-3.53;62.23
69971;BME280;57301;50.328;8.542;2024-01-10T10:12:51;99623.06;;;-3.39;61.59
69971;BME280;57301;50.328;8.542;2024-01-10T10:15:22;99619.09;;;-3.89;62.57
69971;BME280;57301;50.328;8.542;2024-01-10T10:17:50;99616.31;;;-3.82;62.87
69971;BME280;57301;50.328;8.542;2024-01-10T10:20:24;99615.72;;;-3.57;62.35
69971;BME280;57301;50.328;8.542;2024-01-10T10:23:01;99603.22;;;-3.43;62.23
69971;BME280;57301;50.328;8.542;2024-01-10T10:25:29;99608.75;;;-3.57;62.32
69971;BME280;57301;50.328;8.542;2024-01-10T10:27:58;99610.56;;;-3.59;62.86
69971;BME280;57301;50.328;8.542;2024-01-10T10:30:25;99609.03;;;-3.67;62.84
69971;BME280;57301;50.328;8.542;2024-01-10T10:32:52;99605.84;;;-3.44;62.86
69971;BME280;57301;50.328;8.542;2024-01-10T10:35:19;99606.28;;;-3.63;63.07
69971;BME280;57301;50.328;8.542;2024-01-10T10:38:03;99603.59;;;-3.24;61.70
69971;BME280;57301;50.328;8.542;2024-01-10T10:40:30;99598.84;;;-3.10;61.64
69971;BME280;57301;50.328;8.542;2024-01-10T10:42:56;99595.13;;;-3.34;62.45
69971;BME280;57301;50.328;8.542;2024-01-10T10:45:23;99603.44;;;-3.52;62.51
69971;BME280;57301;50.328;8.542;2024-01-10T10:48:00;99591.59;;;-3.65;63.02
69971;BME280;57301;50.328;8.542;2024-01-10T10:50:32;99600.75;;;-3.49;62.53
69971;BME280;57301;50.328;8.542;2024-01-10T10:53:02;99605.22;;;-3.54;63.09
69971;BME280;57301;50.328;8.542;2024-01-10T10:55:29;99590.59;;;-3.60;63.25
69971;BME280;57301;50.328;8.542;2024-01-10T10:57:58;99597.38;;;-3.20;62.05
69971;BME280;57301;50.328;8.542;2024-01-10T11:00:34;99596.09;;;-3.36;62.04
69971;BME280;57301;50.328;8.542;2024-01-10T11:03:03;99594.25;;;-3.02;61.49
69971;BME280;57301;50.328;8.542;2024-01-10T11:05:31;99591.53;;;-2.97;61.35
69971;BME280;57301;50.328;8.542;2024-01-10T11:07:58;99599.41;;;-2.99;61.32
69971;BME280;57301;50.328;8.542;2024-01-10T11:10:31;99582.66;;;-2.60;60.30
69971;BME280;57301;50.328;8.542;2024-01-10T11:19:43;99581.56;;;-2.83;61.11
69971;BME280;57301;50.328;8.542;2024-01-10T11:25:26;99576.63;;;-2.62;60.32
69971;BME280;57301;50.328;8.542;2024-01-10T11:27:55;99575.00;;;-2.66;59.89
69971;BME280;57301;50.328;8.542;2024-01-10T11:30:36;99568.13;;;-2.69;60.73
69971;BME280;57301;50.328;8.542;2024-01-10T11:33:24;99568.84;;;-2.64;60.49
69971;BME280;57301;50.328;8.542;2024-01-10T11:36:18;99559.47;;;-2.41;59.81
69971;BME280;57301;50.328;8.542;2024-01-10T11:38:53;99565.16;;;-2.29;59.56
69971;BME280;57301;50.328;8.542;2024-01-10T11:41:25;99560.16;;;-2.94;61.33
69971;BME280;57301;50.328;8.542;2024-01-10T11:46:49;99561.94;;;-2.66;60.90
69971;BME280;57301;50.328;8.542;2024-01-10T11:49:17;99558.91;;;-2.81;61.05
69971;BME280;57301;50.328;8.542;2024-01-10T11:51:56;99564.88;;;-2.77;61.25
69971;BME280;57301;50.328;8.542;2024-01-10T11:54:43;99563.84;;;-2.42;60.38
69971;BME280;57301;50.328;8.542;2024-01-10T11:57:13;99553.25;;;-2.37;60.35
69971;BME280;57301;50.328;8.542;2024-01-10T11:59:42;99556.50;;;-2.03;59.90
69971;BME280;57301;50.328;8.542;2024-01-10T12:02:10;99547.59;;;-1.96;59.46
69971;BME280;57301;50.328;8.542;2024-01-10T12:04:37;99549.25;;;-0.93;56.94
69971;BME280;57301;50.328;8.542;2024-01-10T12:07:13;99551.59;;;-1.09;57.51
69971;BME280;57301;50.328;8.542;2024-01-10T12:09:40;99548.53;;;-0.73;56.60
69971;BME280;57301;50.328;8.542;2024-01-10T12:12:08;99548.22;;;-0.20;53.79
69971;BME280;57301;50.328;8.542;2024-01-10T12:14:35;99548.91;;;0.07;53.94
69971;BME280;57301;50.328;8.542;2024-01-10T12:17:03;99538.03;;;0.58;52.52
69971;BME280;57301;50.328;8.542;2024-01-10T12:19:31;99545.13;;;-0.08;53.58
69971;BME280;57301;50.328;8.542;2024-01-10T12:21:58;99539.63;;;0.20;52.98
69971;BME280;57301;50.328;8.542;2024-01-10T12:24:27;99545.03;;;-0.74;55.17
69971;BME280;57301;50.328;8.542;2024-01-10T12:26:55;99537.50;;;0.08;53.85
69971;BME280;57301;50.328;8.542;2024-01-10T12:29:22;99524.16;;;3.27;46.92
69971;BME280;57301;50.328;8.542;2024-01-10T12:31:49;99526.25;;;2.87;47.01
69971;BME280;57301;50.328;8.542;2024-01-10T12:34:16;99525.19;;;1.30;50.24
69971;BME280;57301;50.328;8.542;2024-01-10T12:36:43;99530.81;;;0.63;51.38
69971;BME280;57301;50.328;8.542;2024-01-10T12:39:11;99529.56;;;0.09;52.20
69971;BME280;57301;50.328;8.542;2024-01-10T12:41:40;99538.44;;;-0.15;53.03
69971;BME280;57301;50.328;8.542;2024-01-10T12:44:07;99527.16;;;-0.17;53.10
69971;BME280;57301;50.328;8.542;2024-01-10T12:46:33;99527.34;;;-0.22;54.23
69971;BME280;57301;50.328;8.542;2024-01-10T12:49:06;99531.28;;;0.10;53.55
69971;BME280;57301;50.328;8.542;2024-01-10T12:51:34;99528.97;;;-0.19;52.91
69971;BME280;57301;50.328;8.542;2024-01-10T12:54:03;99519.66;;;0.38;52.69
69971;BME280;57301;50.328;8.542;2024-01-10T12:56:32;99528.56;;;1.14;51.32
69971;BME280;57301;50.328;8.542;2024-01-10T12:58:59;99531.94;;;0.97;51.09
69971;BME280;57301;50.328;8.542;2024-01-10T13:01:26;99532.09;;;0.53;51.74
69971;BME280;57301;50.328;8.542;2024-01-10T13:03:57;99528.03;;;0.25;52.10
69971;BME280;57301;50.328;8.542;2024-01-10T13:06:24;99526.00;;;0.32;52.48
69971;BME280;57301;50.328;8.542;2024-01-10T13:08:58;99510.06;;;0.57;52.26
69971;BME280;57301;50.328;8.542;2024-01-10T13:11:31;99521.50;;;0.56;52.22
69971;BME280;57301;50.328;8.542;2024-01-10T13:13:57;99521.63;;;0.33;52.71
69971;BME280;57301;50.328;8.542;2024-01-10T13:16:27;99521.31;;;2.63;48.29
69971;BME280;57301;50.328;8.542;2024-01-10T13:18:56;99508.00;;;5.29;43.23